sensor_id;sensor_type;location;lat;lon;timestamp;pressure;altitude;pressure_sealevel;temperature;humidity
18784;BME280;9520;50.954;6.968;2022-10-16T00:00:05;100554.03;;;22.79;48.65
18784;BME280;9520;50.954;6.968;2022-10-16T00:00:28;100558.53;;;22.78;48.75
18784;BME280;9520;50.954;6.968;2022-10-16T00:00:50;100558.63;;;22.77;48.66
18784;BME280;9520;50.954;6.968;2022-10-16T00:01:14;100554.78;;;22.81;48.54
18784;BME280;9520;50.954;6.968;2022-10-16T00:01:36;100555.94;;;22.77;48.59
18784;BME280;9520;50.954;6.968;2022-10-16T00:01:58;100555.72;;;22.80;48.48
18784;BME280;9520;50.954;6.968;2022-10-16T00:02:20;100551.63;;;22.74;48.56
18784;BME280;9520;50.954;6.968;2022-10-16T00:02:42;100565.63;;;22.79;48.59
18784;BME280;9520;50.954;6.968;2022-10-16T00:03:04;100560.69;;;22.73;48.56
18784;BME280;9520;50.954;6.968;2022-10-16T00:03:26;100566.72;;;22.77;48.36
18784;BME280;9520;50.954;6.968;2022-10-16T00:03:51;100573.81;;;22.78;48.33
18784;BME280;9520;50.954;6.968;2022-10-16T00:04:13;100568.44;;;22.78;48.44
18784;BME280;9520;50.954;6.968;2022-10-16T00:04:36;100566.72;;;22.77;48.52
18784;BME280;9520;50.954;6.968;2022-10-16T00:04:58;100566.50;;;22.80;48.43
18784;BME280;9520;50.954;6.968;2022-10-16T00:05:21;100578.03;;;22.82;48.50
18784;BME280;9520;50.954;6.968;2022-10-16T00:05:43;100576.28;;;22.81;48.53
18784;BME280;9520;50.954;6.968;2022-10-16T00:06:05;100569.94;;;22.82;48.32
18784;BME280;9520;50.954;6.968;2022-10-16T00:06:28;100563.78;;;22.80;48.63
18784;BME280;9520;50.954;6.968;2022-10-16T00:06:49;100573.59;;;22.81;48.27
18784;BME280;9520;50.954;6.968;2022-10-16T00:07:12;100573.34;;;22.71;48.47
18784;BME280;9520;50.954;6.968;2022-10-16T00:07:34;100574.88;;;22.75;48.42
18784;BME280;9520;50.954;6.968;2022-10-16T00:07:55;100570.34;;;22.76;48.27
18784;BME280;9520;50.954;6.968;2022-10-16T00:08:17;100573.91;;;22.76;48.24
18784;BME280;9520;50.954;6.968;2022-10-16T00:08:39;100575.53;;;22.79;48.24
18784;BME280;9520;50.954;6.968;2022-10-16T00:09:02;100575.31;;;22.82;48.20
18784;BME280;9520;50.954;6.968;2022-10-16T00:09:24;100578.88;;;22.83;48.17
18784;BME280;9520;50.954;6.968;2022-10-16T00:09:46;100574.16;;;22.86;48.07
18784;BME280;9520;50.954;6.968;2022-10-16T00:10:08;100558.94;;;22.72;48.03
18784;BME280;9520;50.954;6.968;2022-10-16T00:10:29;100579.53;;;22.86;48.20
18784;BME280;9520;50.954;6.968;2022-10-16T00:10:52;100574.16;;;22.86;48.30
18784;BME280;9520;50.954;6.968;2022-10-16T00:11:16;100569.00;;;22.83;48.17
18784;BME280;9520;50.954;6.968;2022-10-16T00:11:39;100582.03;;;22.89;48.17
18784;BME280;9520;50.954;6.968;2022-10-16T00:12:01;100584.59;;;22.91;47.84
18784;BME280;9520;50.954;6.968;2022-10-16T00:12:25;100572.97;;;22.90;47.98
18784;BME280;9520;50.954;6.968;2022-10-16T00:12:47;100583.00;;;22.88;47.95
18784;BME280;9520;50.954;6.968;2022-10-16T00:13:09;100581.16;;;22.89;48.15
18784;BME280;9520;50.954;6.968;2022-10-16T00:13:32;100580.19;;;22.90;48.23
18784;BME280;9520;50.954;6.968;2022-10-16T00:13:58;100578.34;;;22.90;48.13
18784;BME280;9520;50.954;6.968;2022-10-16T00:14:20;100574.91;;;22.88;47.75
18784;BME280;9520;50.954;6.968;2022-10-16T00:14:41;100580.94;;;22.92;48.00
18784;BME280;9520;50.954;6.968;2022-10-16T00:15:05;100572.09;;;22.90;47.95
18784;BME280;9520;50.954;6.968;2022-10-16T00:15:28;100572.00;;;22.91;48.22
18784;BME280;9520;50.954;6.968;2022-10-16T00:15:50;100575.56;;;22.92;47.97
18784;BME280;9520;50.954;6.968;2022-10-16T00:16:12;100579.13;;;22.92;48.14
18784;BME280;9520;50.954;6.968;2022-10-16T00:16:34;100576.84;;;22.86;48.09
18784;BME280;9520;50.954;6.968;2022-10-16T00:16:56;100573.28;;;22.86;48.15
18784;BME280;9520;50.954;6.968;2022-10-16T00:17:19;100574.78;;;22.90;47.98
18784;BME280;9520;50.954;6.968;2022-10-16T00:17:40;100565.03;;;22.89;48.02
18784;BME280;9520;50.954;6.968;2022-10-16T00:18:03;100571.47;;;22.86;48.14
18784;BME280;9520;50.954;6.968;2022-10-16T00:18:25;100574.69;;;22.91;48.13
18784;BME280;9520;50.954;6.968;2022-10-16T00:18:46;100569.53;;;22.88;48.34
18784;BME280;9520;50.954;6.968;2022-10-16T00:19:10;100558.31;;;22.81;48.13
18784;BME280;9520;50.954;6.968;2022-10-16T00:19:32;100571.28;;;22.89;48.03
18784;BME280;9520;50.954;6.968;2022-10-16T00:19:55;100569.22;;;22.93;47.76
18784;BME280;9520;50.954;6.968;2022-10-16T00:20:16;100570.28;;;22.90;47.86
18784;BME280;9520;50.954;6.968;2022-10-16T00:20:39;100562.22;;;22.90;47.97
18784;BME280;9520;50.954;6.968;2022-10-16T00:21:02;100573.84;;;22.91;47.82
18784;BME280;9520;50.954;6.968;2022-10-16T00:21:27;100574.78;;;22.90;47.98
18784;BME280;9520;50.954;6.968;2022-10-16T00:21:49;100553.03;;;22.80;48.02
18784;BME280;9520;50.954;6.968;2022-10-16T00:22:11;100574.78;;;22.90;47.88
18784;BME280;9520;50.954;6.968;2022-10-16T00:22:33;100572.09;;;22.90;47.82
18784;BME280;9520;50.954;6.968;2022-10-16T00:22:55;100574.78;;;22.90;47.82
18784;BME280;9520;50.954;6.968;2022-10-16T00:23:16;100577.47;;;22.90;48.01
18784;BME280;9520;50.954;6.968;2022-10-16T00:23:38;100587.41;;;22.89;48.32
18784;BME280;9520;50.954;6.968;2022-10-16T00:24:03;100588.47;;;22.87;48.35
18784;BME280;9520;50.954;6.968;2022-10-16T00:24:25;100583.94;;;22.87;48.45
18784;BME280;9520;50.954;6.968;2022-10-16T00:24:47;100589.31;;;22.87;48.28
18784;BME280;9520;50.954;6.968;2022-10-16T00:25:09;100585.88;;;22.85;48.54
18784;BME280;9520;50.954;6.968;2022-10-16T00:25:32;100595.75;;;22.85;48.44
18784;BME280;9520;50.954;6.968;2022-10-16T00:25:54;100587.91;;;22.81;48.33
18784;BME280;9520;50.954;6.968;2022-10-16T00:26:18;100587.84;;;22.69;48.35
18784;BME280;9520;50.954;6.968;2022-10-16T00:26:40;100591.88;;;22.76;48.41
18784;BME280;9520;50.954;6.968;2022-10-16T00:27:02;100585.44;;;22.78;48.10
18784;BME280;9520;50.954;6.968;2022-10-16T00:27:24;100593.38;;;22.80;48.30
18784;BME280;9520;50.954;6.968;2022-10-16T00:27:45;100586.50;;;22.76;48.40
18784;BME280;9520;50.954;6.968;2022-10-16T00:28:08;100595.13;;;22.81;48.24
18784;BME280;9520;50.954;6.968;2022-10-16T00:28:30;100598.66;;;22.81;48.13
18784;BME280;9520;50.954;6.968;2022-10-16T00:28:53;100592.34;;;22.83;48.15
18784;BME280;9520;50.954;6.968;2022-10-16T00:29:14;100598.44;;;22.85;47.84
18784;BME280;9520;50.954;6.968;2022-10-16T00:29:36;100591.16;;;22.87;47.92
18784;BME280;9520;50.954;6.968;2022-10-16T00:29:57;100593.94;;;22.85;47.97
18784;BME280;9520;50.954;6.968;2022-10-16T00:30:21;100596.63;;;22.85;47.83
18784;BME280;9520;50.954;6.968;2022-10-16T00:30:42;100592.13;;;22.86;47.82
18784;BME280;9520;50.954;6.968;2022-10-16T00:31:05;100585.88;;;22.85;47.98
18784;BME280;9520;50.954;6.968;2022-10-16T00:31:27;100600.19;;;22.86;47.96
18784;BME280;9520;50.954;6.968;2022-10-16T00:31:50;100593.94;;;22.85;48.01
18784;BME280;9520;50.954;6.968;2022-10-16T00:32:12;100595.66;;;22.86;48.06
18784;BME280;9520;50.954;6.968;2022-10-16T00:32:34;100597.41;;;22.87;48.32
18784;BME280;9520;50.954;6.968;2022-10-16T00:32:55;100597.50;;;22.86;48.31
18784;BME280;9520;50.954;6.968;2022-10-16T00:33:17;100584.16;;;22.84;48.57
18784;BME280;9520;50.954;6.968;2022-10-16T00:33:40;100590.28;;;22.86;48.25
18784;BME280;9520;50.954;6.968;2022-10-16T00:34:02;100589.53;;;22.84;48.40
18784;BME280;9520;50.954;6.968;2022-10-16T00:34:23;100590.50;;;22.83;48.45
18784;BME280;9520;50.954;6.968;2022-10-16T00:34:46;100586.09;;;22.82;48.45
18784;BME280;9520;50.954;6.968;2022-10-16T00:35:09;100583.63;;;22.79;48.03
18784;BME280;9520;50.954;6.968;2022-10-16T00:35:31;100586.72;;;22.73;48.04
18784;BME280;9520;50.954;6.968;2022-10-16T00:35:52;100584.03;;;22.73;48.26
18784;BME280;9520;50.954;6.968;2022-10-16T00:36:17;100570.44;;;22.74;48.09
18784;BME280;9520;50.954;6.968;2022-10-16T00:36:39;100581.97;;;22.76;47.89
18784;BME280;9520;50.954;6.968;2022-10-16T00:37:00;100574.78;;;22.77;48.05
18784;BME280;9520;50.954;6.968;2022-10-16T00:37:22;100579.19;;;22.78;48.32
18784;BME280;9520;50.954;6.968;2022-10-16T00:37:44;100575.53;;;22.79;48.14
18784;BME280;9520;50.954;6.968;2022-10-16T00:38:06;100574.56;;;22.80;48.30
18784;BME280;9520;50.954;6.968;2022-10-16T00:38:28;100577.47;;;22.77;48.12
18784;BME280;9520;50.954;6.968;2022-10-16T00:38:51;100578.09;;;22.80;48.45
18784;BME280;9520;50.954;6.968;2022-10-16T00:39:15;100571.78;;;22.81;48.19
18784;BME280;9520;50.954;6.968;2022-10-16T00:39:37;100578.97;;;22.81;48.24
18784;BME280;9520;50.954;6.968;2022-10-16T00:39:59;100576.28;;;22.81;48.04
18784;BME280;9520;50.954;6.968;2022-10-16T00:41:04;100578.97;;;22.81;47.79
18784;BME280;9520;50.954;6.968;2022-10-16T00:41:28;100579.06;;;22.79;47.83
18784;BME280;9520;50.954;6.968;2022-10-16T00:41:50;100572.94;;;22.77;48.10
18784;BME280;9520;50.954;6.968;2022-10-16T00:42:14;100576.50;;;22.78;48.04
18784;BME280;9520;50.954;6.968;2022-10-16T00:42:36;100578.31;;;22.77;48.47
18784;BME280;9520;50.954;6.968;2022-10-16T00:42:59;100579.19;;;22.78;48.30
18784;BME280;9520;50.954;6.968;2022-10-16T00:43:37;100577.56;;;22.75;48.18
18784;BME280;9520;50.954;6.968;2022-10-16T00:44:01;100578.50;;;22.74;48.72
18784;BME280;9520;50.954;6.968;2022-10-16T00:44:45;100577.56;;;22.75;48.35
18784;BME280;9520;50.954;6.968;2022-10-16T00:45:09;100577.56;;;22.75;48.52
18784;BME280;9520;50.954;6.968;2022-10-16T00:45:30;100577.69;;;22.74;48.51
18784;BME280;9520;50.954;6.968;2022-10-16T00:45:53;100576.03;;;22.71;48.34
18784;BME280;9520;50.954;6.968;2022-10-16T00:46:17;100575.09;;;22.72;48.50
18784;BME280;9520;50.954;6.968;2022-10-16T00:46:41;100575.19;;;22.71;48.23
18784;BME280;9520;50.954;6.968;2022-10-16T00:47:03;100572.41;;;22.72;48.08
18784;BME280;9520;50.954;6.968;2022-10-16T00:47:27;100575.94;;;22.73;48.17
18784;BME280;9520;50.954;6.968;2022-10-16T00:47:51;100567.75;;;22.74;48.35
18784;BME280;9520;50.954;6.968;2022-10-16T00:48:21;100570.56;;;22.73;48.32
18784;BME280;9520;50.954;6.968;2022-10-16T00:48:49;100573.25;;;22.73;48.63
18784;BME280;9520;50.954;6.968;2022-10-16T00:49:14;100571.53;;;22.72;48.53
18784;BME280;9520;50.954;6.968;2022-10-16T00:49:38;100576.03;;;22.71;48.36
18784;BME280;9520;50.954;6.968;2022-10-16T00:50:04;100574.22;;;22.72;48.34
18784;BME280;9520;50.954;6.968;2022-10-16T00:50:31;100576.91;;;22.72;48.46
18784;BME280;9520;50.954;6.968;2022-10-16T00:50:55;100568.84;;;22.72;48.58
18784;BME280;9520;50.954;6.968;2022-10-16T00:51:19;100575.28;;;22.69;48.48
18784;BME280;9520;50.954;6.968;2022-10-16T00:51:45;100572.69;;;22.68;48.66
18784;BME280;9520;50.954;6.968;2022-10-16T00:52:08;100580.56;;;22.71;48.58
18784;BME280;9520;50.954;6.968;2022-10-16T00:52:30;100576.09;;;22.70;48.72
18784;BME280;9520;50.954;6.968;2022-10-16T00:52:53;100581.44;;;22.71;48.71
18784;BME280;9520;50.954;6.968;2022-10-16T00:53:16;100580.56;;;22.71;48.67
18784;BME280;9520;50.954;6.968;2022-10-16T00:53:38;100577.09;;;22.69;48.68
18784;BME280;9520;50.954;6.968;2022-10-16T00:54:02;100578.91;;;22.68;48.62
18784;BME280;9520;50.954;6.968;2022-10-16T00:54:27;100575.28;;;22.69;48.64
18784;BME280;9520;50.954;6.968;2022-10-16T00:54:49;100584.97;;;22.72;48.57
18784;BME280;9520;50.954;6.968;2022-10-16T00:55:12;100579.59;;;22.72;48.45
18784;BME280;9520;50.954;6.968;2022-10-16T00:55:35;100581.44;;;22.71;48.82
18784;BME280;9520;50.954;6.968;2022-10-16T00:56:03;100563.97;;;22.64;48.81
18784;BME280;9520;50.954;6.968;2022-10-16T00:56:25;100578.78;;;22.70;48.73
18784;BME280;9520;50.954;6.968;2022-10-16T00:56:49;100574.50;;;22.67;48.47
18784;BME280;9520;50.954;6.968;2022-10-16T00:57:11;100574.41;;;22.69;48.48
18784;BME280;9520;50.954;6.968;2022-10-16T00:57:33;100573.53;;;22.68;48.33
18784;BME280;9520;50.954;6.968;2022-10-16T00:57:55;100573.53;;;22.68;48.53
18784;BME280;9520;50.954;6.968;2022-10-16T00:58:19;100576.22;;;22.68;48.43
18784;BME280;9520;50.954;6.968;2022-10-16T00:58:41;100568.16;;;22.68;48.47
18784;BME280;9520;50.954;6.968;2022-10-16T00:59:05;100568.03;;;22.70;48.58
18784;BME280;9520;50.954;6.968;2022-10-16T00:59:31;100568.16;;;22.68;48.62
18784;BME280;9520;50.954;6.968;2022-10-16T00:59:54;100571.72;;;22.69;48.59
18784;BME280;9520;50.954;6.968;2022-10-16T01:00:19;100560.50;;;22.62;48.92
18784;BME280;9520;50.954;6.968;2022-10-16T01:00:41;100562.31;;;22.62;48.73
18784;BME280;9520;50.954;6.968;2022-10-16T01:01:03;100570.00;;;22.68;48.35
18784;BME280;9520;50.954;6.968;2022-10-16T01:01:25;100576.22;;;22.68;48.17
18784;BME280;9520;50.954;6.968;2022-10-16T01:01:47;100576.09;;;22.70;48.16
18784;BME280;9520;50.954;6.968;2022-10-16T01:02:12;100575.38;;;22.68;48.38
18784;BME280;9520;50.954;6.968;2022-10-16T01:02:34;100577.00;;;22.70;48.74
18784;BME280;9520;50.954;6.968;2022-10-16T01:02:58;100576.03;;;22.71;48.47
18784;BME280;9520;50.954;6.968;2022-10-16T01:03:27;100581.47;;;22.70;48.62
18784;BME280;9520;50.954;6.968;2022-10-16T01:03:49;100578.78;;;22.70;48.39
18784;BME280;9520;50.954;6.968;2022-10-16T01:04:10;100578.06;;;22.68;48.48
18784;BME280;9520;50.954;6.968;2022-10-16T01:04:36;100580.66;;;22.69;48.56
18784;BME280;9520;50.954;6.968;2022-10-16T01:04:59;100579.78;;;22.69;48.65
18784;BME280;9520;50.954;6.968;2022-10-16T01:05:22;100582.47;;;22.69;48.34
18784;BME280;9520;50.954;6.968;2022-10-16T01:05:51;100581.47;;;22.70;48.59
18784;BME280;9520;50.954;6.968;2022-10-16T01:06:27;100578.34;;;22.63;48.49
18784;BME280;9520;50.954;6.968;2022-10-16T01:06:57;100572.97;;;22.63;48.67
18784;BME280;9520;50.954;6.968;2022-10-16T01:07:32;100572.03;;;22.64;48.55
18784;BME280;9520;50.954;6.968;2022-10-16T01:08:04;100578.22;;;22.65;48.50
18784;BME280;9520;50.954;6.968;2022-10-16T01:08:33;100580.09;;;22.64;48.55
18784;BME280;9520;50.954;6.968;2022-10-16T01:09:04;100582.56;;;22.67;48.68
18784;BME280;9520;50.954;6.968;2022-10-16T01:09:35;100580.75;;;22.68;48.65
18784;BME280;9520;50.954;6.968;2022-10-16T01:10:07;100586.22;;;22.66;48.69
18784;BME280;9520;50.954;6.968;2022-10-16T01:10:35;100579.97;;;22.66;48.55
18784;BME280;9520;50.954;6.968;2022-10-16T01:11:05;100580.19;;;22.63;48.78
18784;BME280;9520;50.954;6.968;2022-10-16T01:11:33;100576.63;;;22.62;48.54
18784;BME280;9520;50.954;6.968;2022-10-16T01:12:01;100575.97;;;22.59;48.70
18784;BME280;9520;50.954;6.968;2022-10-16T01:12:33;100570.34;;;22.49;48.67
18784;BME280;9520;50.954;6.968;2022-10-16T01:13:03;100583.19;;;22.58;48.84
18784;BME280;9520;50.954;6.968;2022-10-16T01:13:32;100586.75;;;22.59;48.31
18784;BME280;9520;50.954;6.968;2022-10-16T01:13:58;100581.22;;;22.60;48.59
18784;BME280;9520;50.954;6.968;2022-10-16T01:14:27;100581.22;;;22.60;48.74
18784;BME280;9520;50.954;6.968;2022-10-16T01:14:54;100584.78;;;22.61;48.81
18784;BME280;9520;50.954;6.968;2022-10-16T01:15:25;100586.44;;;22.63;48.67
18784;BME280;9520;50.954;6.968;2022-10-16T01:15:53;100584.69;;;22.62;48.87
18784;BME280;9520;50.954;6.968;2022-10-16T01:16:24;100584.59;;;22.64;48.96
18784;BME280;9520;50.954;6.968;2022-10-16T01:16:56;100575.00;;;22.60;49.00
18784;BME280;9520;50.954;6.968;2022-10-16T01:17:26;100574.16;;;22.59;49.28
18784;BME280;9520;50.954;6.968;2022-10-16T01:17:53;100588.34;;;22.61;48.97
18784;BME280;9520;50.954;6.968;2022-10-16T01:18:25;100588.34;;;22.61;48.72
18784;BME280;9520;50.954;6.968;2022-10-16T01:18:54;100579.41;;;22.61;48.84
18784;BME280;9520;50.954;6.968;2022-10-16T01:19:26;100585.56;;;22.63;49.09
18784;BME280;9520;50.954;6.968;2022-10-16T01:20:05;100584.69;;;22.62;48.71
18784;BME280;9520;50.954;6.968;2022-10-16T01:20:32;100582.88;;;22.63;49.15
18784;BME280;9520;50.954;6.968;2022-10-16T01:21:00;100582.78;;;22.64;48.99
18784;BME280;9520;50.954;6.968;2022-10-16T01:21:26;100589.97;;;22.64;48.78
18784;BME280;9520;50.954;6.968;2022-10-16T01:21:51;100584.59;;;22.64;48.97
18784;BME280;9520;50.954;6.968;2022-10-16T01:22:16;100584.03;;;22.59;49.11
18784;BME280;9520;50.954;6.968;2022-10-16T01:22:48;100586.75;;;22.59;48.84
18784;BME280;9520;50.954;6.968;2022-10-16T01:23:25;100581.44;;;22.57;49.23
18784;BME280;9520;50.954;6.968;2022-10-16T01:23:59;100593.25;;;22.55;49.05
18784;BME280;9520;50.954;6.968;2022-10-16T01:24:31;100595.84;;;22.56;49.06
18784;BME280;9520;50.954;6.968;2022-10-16T01:24:55;100589.59;;;22.56;49.22
18784;BME280;9520;50.954;6.968;2022-10-16T01:25:26;100591.34;;;22.57;48.98
18784;BME280;9520;50.954;6.968;2022-10-16T01:26:01;100583.59;;;22.52;49.13
18784;BME280;9520;50.954;6.968;2022-10-16T01:26:33;100593.38;;;22.53;49.11
18784;BME280;9520;50.954;6.968;2022-10-16T01:27:13;100588.00;;;22.53;48.55
18784;BME280;9520;50.954;6.968;2022-10-16T01:27:39;100595.41;;;22.50;48.35
18784;BME280;9520;50.954;6.968;2022-10-16T01:28:04;100602.31;;;22.54;48.56
18784;BME280;9520;50.954;6.968;2022-10-16T01:28:33;100594.56;;;22.49;48.92
18784;BME280;9520;50.954;6.968;2022-10-16T01:29:01;100597.88;;;22.53;48.28
18784;BME280;9520;50.954;6.968;2022-10-16T01:29:27;100588.41;;;22.47;48.50
18784;BME280;9520;50.954;6.968;2022-10-16T01:29:53;100585.31;;;22.53;48.53
18784;BME280;9520;50.954;6.968;2022-10-16T01:30:19;100598.84;;;22.52;48.47
18784;BME280;9520;50.954;6.968;2022-10-16T01:30:43;100597.13;;;22.51;48.67
18784;BME280;9520;50.954;6.968;2022-10-16T01:31:06;100586.19;;;22.54;48.91
18784;BME280;9520;50.954;6.968;2022-10-16T01:31:33;100596.81;;;22.55;48.77
18784;BME280;9520;50.954;6.968;2022-10-16T01:32:00;100588.19;;;22.50;49.00
18784;BME280;9520;50.954;6.968;2022-10-16T01:32:28;100598.63;;;22.55;48.73
18784;BME280;9520;50.954;6.968;2022-10-16T01:32:55;100594.13;;;22.55;48.79
18784;BME280;9520;50.954;6.968;2022-10-16T01:33:21;100584.66;;;22.50;48.94
18784;BME280;9520;50.954;6.968;2022-10-16T01:33:48;100590.56;;;22.55;48.70
18784;BME280;9520;50.954;6.968;2022-10-16T01:34:15;100588.00;;;22.53;48.46
18784;BME280;9520;50.954;6.968;2022-10-16T01:34:42;100581.53;;;22.56;49.10
18784;BME280;9520;50.954;6.968;2022-10-16T01:35:11;100584.22;;;22.56;49.27
18784;BME280;9520;50.954;6.968;2022-10-16T01:35:37;100588.75;;;22.55;48.96
18784;BME280;9520;50.954;6.968;2022-10-16T01:36:03;100580.59;;;22.57;48.71
18784;BME280;9520;50.954;6.968;2022-10-16T01:36:35;100573.13;;;22.48;48.87
18784;BME280;9520;50.954;6.968;2022-10-16T01:37:04;100582.50;;;22.55;48.95
18784;BME280;9520;50.954;6.968;2022-10-16T01:37:32;100580.59;;;22.57;48.75
18784;BME280;9520;50.954;6.968;2022-10-16T01:38:00;100581.44;;;22.57;48.38
18784;BME280;9520;50.954;6.968;2022-10-16T01:38:29;100585.97;;;22.57;48.51
18784;BME280;9520;50.954;6.968;2022-10-16T01:38:55;100590.47;;;22.56;48.55
18784;BME280;9520;50.954;6.968;2022-10-16T01:39:21;100589.59;;;22.56;48.55
18784;BME280;9520;50.954;6.968;2022-10-16T01:39:45;100595.09;;;22.54;48.49
18784;BME280;9520;50.954;6.968;2022-10-16T01:40:11;100592.59;;;22.51;48.82
18784;BME280;9520;50.954;6.968;2022-10-16T01:40:36;100587.03;;;22.54;48.65
18784;BME280;9520;50.954;6.968;2022-10-16T01:41:01;100591.00;;;22.49;48.60
18784;BME280;9520;50.954;6.968;2022-10-16T01:41:30;100586.19;;;22.54;48.79
18784;BME280;9520;50.954;6.968;2022-10-16T01:41:58;100595.19;;;22.53;48.56
18784;BME280;9520;50.954;6.968;2022-10-16T01:42:27;100595.94;;;22.55;48.91
18784;BME280;9520;50.954;6.968;2022-10-16T01:42:55;100596.94;;;22.54;48.91
18784;BME280;9520;50.954;6.968;2022-10-16T01:43:26;100600.38;;;22.56;49.39
18784;BME280;9520;50.954;6.968;2022-10-16T01:43:53;100602.19;;;22.55;49.05
18784;BME280;9520;50.954;6.968;2022-10-16T01:44:20;100595.94;;;22.55;49.51
18784;BME280;9520;50.954;6.968;2022-10-16T01:44:45;100605.00;;;22.54;49.02
18784;BME280;9520;50.954;6.968;2022-10-16T01:45:11;100595.84;;;22.56;48.64
18784;BME280;9520;50.954;6.968;2022-10-16T01:45:35;100600.56;;;22.53;48.83
18784;BME280;9520;50.954;6.968;2022-10-16T01:45:59;100595.19;;;22.53;48.92
18784;BME280;9520;50.954;6.968;2022-10-16T01:46:23;100591.66;;;22.52;49.03
18784;BME280;9520;50.954;6.968;2022-10-16T01:46:48;100590.78;;;22.52;48.80
18784;BME280;9520;50.954;6.968;2022-10-16T01:47:12;100601.44;;;22.53;48.78
18784;BME280;9520;50.954;6.968;2022-10-16T01:47:35;100592.50;;;22.53;48.80
18784;BME280;9520;50.954;6.968;2022-10-16T01:48:00;100596.06;;;22.53;48.80
18784;BME280;9520;50.954;6.968;2022-10-16T01:48:25;100591.56;;;22.54;48.96
18784;BME280;9520;50.954;6.968;2022-10-16T01:48:47;100587.44;;;22.48;48.72
18784;BME280;9520;50.954;6.968;2022-10-16T01:49:10;100590.69;;;22.53;49.03
18784;BME280;9520;50.954;6.968;2022-10-16T01:49:35;100587.03;;;22.54;49.03
18784;BME280;9520;50.954;6.968;2022-10-16T01:49:59;100606.69;;;22.55;49.10
18784;BME280;9520;50.954;6.968;2022-10-16T01:50:23;100571.78;;;22.40;48.87
18784;BME280;9520;50.954;6.968;2022-10-16T01:50:52;100597.78;;;22.54;49.02
18784;BME280;9520;50.954;6.968;2022-10-16T01:51:16;100589.81;;;22.53;49.10
18784;BME280;9520;50.954;6.968;2022-10-16T01:51:41;100595.09;;;22.54;48.85
18784;BME280;9520;50.954;6.968;2022-10-16T01:52:08;100591.66;;;22.52;49.01
18784;BME280;9520;50.954;6.968;2022-10-16T01:52:32;100584.44;;;22.53;48.86
18784;BME280;9520;50.954;6.968;2022-10-16T01:52:56;100587.13;;;22.53;49.10
18784;BME280;9520;50.954;6.968;2022-10-16T01:53:19;100586.19;;;22.54;49.10
18784;BME280;9520;50.954;6.968;2022-10-16T01:53:43;100595.94;;;22.55;48.91
18784;BME280;9520;50.954;6.968;2022-10-16T01:54:08;100594.97;;;22.56;49.07
18784;BME280;9520;50.954;6.968;2022-10-16T01:54:32;100604.00;;;22.55;49.11
18784;BME280;9520;50.954;6.968;2022-10-16T01:54:56;100603.06;;;22.56;48.94
18784;BME280;9520;50.954;6.968;2022-10-16T01:55:24;100599.63;;;22.54;48.75
18784;BME280;9520;50.954;6.968;2022-10-16T01:55:47;100602.31;;;22.54;48.45
18784;BME280;9520;50.954;6.968;2022-10-16T01:56:11;100609.38;;;22.55;48.53
18784;BME280;9520;50.954;6.968;2022-10-16T01:56:36;100603.19;;;22.54;48.48
18784;BME280;9520;50.954;6.968;2022-10-16T01:56:59;100599.63;;;22.54;49.06
18784;BME280;9520;50.954;6.968;2022-10-16T01:57:24;100604.88;;;22.55;49.08
18784;BME280;9520;50.954;6.968;2022-10-16T01:57:49;100609.38;;;22.55;48.77
18784;BME280;9520;50.954;6.968;2022-10-16T01:58:14;100608.56;;;22.54;48.84
18784;BME280;9520;50.954;6.968;2022-10-16T01:58:40;100598.84;;;22.52;48.93
18784;BME280;9520;50.954;6.968;2022-10-16T01:59:06;100606.81;;;22.53;48.72
18784;BME280;9520;50.954;6.968;2022-10-16T01:59:31;100611.31;;;22.53;48.86
18784;BME280;9520;50.954;6.968;2022-10-16T01:59:58;100602.50;;;22.51;49.06
18784;BME280;9520;50.954;6.968;2022-10-16T02:00:32;100610.47;;;22.52;48.81
18784;BME280;9520;50.954;6.968;2022-10-16T02:00:54;100601.44;;;22.53;48.86
18784;BME280;9520;50.954;6.968;2022-10-16T02:01:19;100594.34;;;22.52;48.87
18784;BME280;9520;50.954;6.968;2022-10-16T02:01:47;100596.94;;;22.54;48.72
18784;BME280;9520;50.954;6.968;2022-10-16T02:02:11;100603.25;;;22.53;49.25
18784;BME280;9520;50.954;6.968;2022-10-16T02:02:34;100596.16;;;22.52;49.02
18784;BME280;9520;50.954;6.968;2022-10-16T02:02:57;100608.09;;;22.48;48.70
18784;BME280;9520;50.954;6.968;2022-10-16T02:03:21;100603.56;;;22.48;48.85
18784;BME280;9520;50.954;6.968;2022-10-16T02:03:44;100606.25;;;22.48;48.84
18784;BME280;9520;50.954;6.968;2022-10-16T02:04:11;100600.09;;;22.46;48.75
18784;BME280;9520;50.954;6.968;2022-10-16T02:04:38;100607.31;;;22.46;48.32
18784;BME280;9520;50.954;6.968;2022-10-16T02:05:04;100606.66;;;22.42;48.00
18784;BME280;9520;50.954;6.968;2022-10-16T02:05:32;100607.44;;;22.44;48.16
18784;BME280;9520;50.954;6.968;2022-10-16T02:05:56;100601.50;;;22.39;48.64
18784;BME280;9520;50.954;6.968;2022-10-16T02:06:19;100605.88;;;22.40;48.70
18784;BME280;9520;50.954;6.968;2022-10-16T02:06:43;100601.50;;;22.39;48.67
18784;BME280;9520;50.954;6.968;2022-10-16T02:07:05;100608.56;;;22.40;48.77
18784;BME280;9520;50.954;6.968;2022-10-16T02:07:28;100606.66;;;22.42;48.26
18784;BME280;9520;50.954;6.968;2022-10-16T02:07:50;100607.53;;;22.43;48.34
18784;BME280;9520;50.954;6.968;2022-10-16T02:08:11;100603.88;;;22.44;48.30
18784;BME280;9520;50.954;6.968;2022-10-16T02:08:35;100602.13;;;22.43;48.38
18784;BME280;9520;50.954;6.968;2022-10-16T02:08:57;100601.94;;;22.46;48.42
18784;BME280;9520;50.954;6.968;2022-10-16T02:09:18;100606.25;;;22.48;48.17
18784;BME280;9520;50.954;6.968;2022-10-16T02:09:40;100610.69;;;22.49;48.12
18784;BME280;9520;50.954;6.968;2022-10-16T02:10:02;100603.47;;;22.50;48.14
18784;BME280;9520;50.954;6.968;2022-10-16T02:10:25;100601.75;;;22.49;48.35
18784;BME280;9520;50.954;6.968;2022-10-16T02:10:52;100603.34;;;22.51;47.99
18784;BME280;9520;50.954;6.968;2022-10-16T02:11:13;100597.97;;;22.51;48.26
18784;BME280;9520;50.954;6.968;2022-10-16T02:11:35;100598.09;;;22.50;48.35
18784;BME280;9520;50.954;6.968;2022-10-16T02:12:01;100599.16;;;22.47;48.07